sensor_id;sensor_type;location;lat;lon;timestamp;temperature;humidity
24744;DHT22;12844;52.110;5.548;2022-09-12T00:00:26;24.40;51.50
24744;DHT22;12844;52.110;5.548;2022-09-12T00:02:53;24.40;51.50
24744;DHT22;12844;52.110;5.548;2022-09-12T00:05:18;24.40;51.50
24744;DHT22;12844;52.110;5.548;2022-09-12T00:07:44;24.40;51.50
24744;DHT22;12844;52.110;5.548;2022-09-12T00:10:09;24.40;51.50
24744;DHT22;12844;52.110;5.548;2022-09-12T00:12:35;24.40;51.50
24744;DHT22;12844;52.110;5.548;2022-09-12T00:15:00;24.40;51.50
24744;DHT22;12844;52.110;5.548;2022-09-12T00:17:26;24.40;51.50
24744;DHT22;12844;52.110;5.548;2022-09-12T00:19:52;24.40;51.50
24744;DHT22;12844;52.110;5.548;2022-09-12T00:22:17;24.40;51.50
24744;DHT22;12844;52.110;5.548;2022-09-12T00:24:43;24.40;51.50
24744;DHT22;12844;52.110;5.548;2022-09-12T00:27:08;24.40;51.50
24744;DHT22;12844;52.110;5.548;2022-09-12T00:29:34;24.40;51.50
24744;DHT22;12844;52.110;5.548;2022-09-12T00:31:59;24.40;51.50
24744;DHT22;12844;52.110;5.548;2022-09-12T00:34:25;24.40;51.50
24744;DHT22;12844;52.110;5.548;2022-09-12T00:36:50;24.40;51.50
24744;DHT22;12844;52.110;5.548;2022-09-12T00:39:16;24.40;51.50
24744;DHT22;12844;52.110;5.548;2022-09-12T00:41:42;24.30;51.40
24744;DHT22;12844;52.110;5.548;2022-09-12T00:49:24;24.30;51.40
24744;DHT22;12844;52.110;5.548;2022-09-12T00:54:40;24.30;51.40
24744;DHT22;12844;52.110;5.548;2022-09-12T00:57:08;24.30;51.50
24744;DHT22;12844;52.110;5.548;2022-09-12T00:59:46;24.30;51.50
24744;DHT22;12844;52.110;5.548;2022-09-12T01:02:12;24.30;51.40
24744;DHT22;12844;52.110;5.548;2022-09-12T01:04:39;24.30;51.50
24744;DHT22;12844;52.110;5.548;2022-09-12T01:07:06;24.30;51.50
24744;DHT22;12844;52.110;5.548;2022-09-12T01:09:32;24.30;51.50
24744;DHT22;12844;52.110;5.548;2022-09-12T01:12:00;24.30;51.40
24744;DHT22;12844;52.110;5.548;2022-09-12T01:14:26;24.30;51.40
24744;DHT22;12844;52.110;5.548;2022-09-12T01:16:52;24.30;51.40
24744;DHT22;12844;52.110;5.548;2022-09-12T01:19:47;24.30;51.40
24744;DHT22;12844;52.110;5.548;2022-09-12T01:22:44;24.30;51.30
24744;DHT22;12844;52.110;5.548;2022-09-12T01:30:44;24.20;51.50
24744;DHT22;12844;52.110;5.548;2022-09-12T01:36:02;24.20;51.40
24744;DHT22;12844;52.110;5.548;2022-09-12T01:38:37;24.20;51.40
24744;DHT22;12844;52.110;5.548;2022-09-12T01:44:03;24.20;51.40
24744;DHT22;12844;52.110;5.548;2022-09-12T01:49:22;24.20;51.40
24744;DHT22;12844;52.110;5.548;2022-09-12T01:54:40;24.20;51.40
24744;DHT22;12844;52.110;5.548;2022-09-12T01:57:12;24.20;51.40
24744;DHT22;12844;52.110;5.548;2022-09-12T01:59:46;24.20;51.40
24744;DHT22;12844;52.110;5.548;2022-09-12T02:02:33;24.20;51.40
24744;DHT22;12844;52.110;5.548;2022-09-12T02:05:05;24.20;51.30
24744;DHT22;12844;52.110;5.548;2022-09-12T02:07:37;24.20;51.40
24744;DHT22;12844;52.110;5.548;2022-09-12T02:10:15;24.20;51.30
24744;DHT22;12844;52.110;5.548;2022-09-12T02:12:46;24.20;51.30
24744;DHT22;12844;52.110;5.548;2022-09-12T02:15:16;24.20;51.40
24744;DHT22;12844;52.110;5.548;2022-09-12T02:17:46;24.20;51.40
24744;DHT22;12844;52.110;5.548;2022-09-12T02:20:18;24.20;51.30
24744;DHT22;12844;52.110;5.548;2022-09-12T02:22:46;24.20;51.30
24744;DHT22;12844;52.110;5.548;2022-09-12T02:25:15;24.20;51.30
24744;DHT22;12844;52.110;5.548;2022-09-12T02:27:50;24.20;51.30
24744;DHT22;12844;52.110;5.548;2022-09-12T02:30:17;24.20;51.20
24744;DHT22;12844;52.110;5.548;2022-09-12T02:32:47;24.20;51.30
24744;DHT22;12844;52.110;5.548;2022-09-12T02:35:50;24.20;51.30
24744;DHT22;12844;52.110;5.548;2022-09-12T02:38:35;24.20;51.20
24744;DHT22;12844;52.110;5.548;2022-09-12T02:41:02;24.20;51.30
24744;DHT22;12844;52.110;5.548;2022-09-12T02:43:28;24.20;51.30
24744;DHT22;12844;52.110;5.548;2022-09-12T02:45:53;24.10;51.30
24744;DHT22;12844;52.110;5.548;2022-09-12T02:50:44;24.10;51.20
24744;DHT22;12844;52.110;5.548;2022-09-12T02:53:10;24.10;51.20
24744;DHT22;12844;52.110;5.548;2022-09-12T02:55:38;24.10;51.30
24744;DHT22;12844;52.110;5.548;2022-09-12T02:58:07;24.10;51.20
24744;DHT22;12844;52.110;5.548;2022-09-12T03:00:38;24.10;51.20
24744;DHT22;12844;52.110;5.548;2022-09-12T03:03:28;24.10;51.20
24744;DHT22;12844;52.110;5.548;2022-09-12T03:06:17;24.20;51.20
24744;DHT22;12844;52.110;5.548;2022-09-12T03:09:17;24.10;51.20
24744;DHT22;12844;52.110;5.548;2022-09-12T03:12:12;24.10;51.20
24744;DHT22;12844;52.110;5.548;2022-09-12T03:17:29;24.10;51.40
24744;DHT22;12844;52.110;5.548;2022-09-12T03:20:08;24.10;51.20
24744;DHT22;12844;52.110;5.548;2022-09-12T03:22:54;24.10;51.30
24744;DHT22;12844;52.110;5.548;2022-09-12T03:25:53;24.10;51.30
24744;DHT22;12844;52.110;5.548;2022-09-12T03:28:22;24.10;51.30
24744;DHT22;12844;52.110;5.548;2022-09-12T03:30:49;24.10;51.40
24744;DHT22;12844;52.110;5.548;2022-09-12T03:33:23;24.10;51.40
24744;DHT22;12844;52.110;5.548;2022-09-12T03:35:50;24.10;51.30
24744;DHT22;12844;52.110;5.548;2022-09-12T03:38:16;24.10;51.30
24744;DHT22;12844;52.110;5.548;2022-09-12T03:40:42;24.10;51.30
24744;DHT22;12844;52.110;5.548;2022-09-12T03:43:08;24.10;51.20
24744;DHT22;12844;52.110;5.548;2022-09-12T03:45:34;24.10;51.20
24744;DHT22;12844;52.110;5.548;2022-09-12T03:48:00;24.10;51.20
24744;DHT22;12844;52.110;5.548;2022-09-12T03:50:26;24.10;51.20
24744;DHT22;12844;52.110;5.548;2022-09-12T03:52:52;24.10;51.20
24744;DHT22;12844;52.110;5.548;2022-09-12T03:55:17;24.00;51.20
24744;DHT22;12844;52.110;5.548;2022-09-12T03:57:43;24.10;51.20
24744;DHT22;12844;52.110;5.548;2022-09-12T04:00:09;24.10;51.20
24744;DHT22;12844;52.110;5.548;2022-09-12T04:02:35;24.10;51.20
24744;DHT22;12844;52.110;5.548;2022-09-12T04:05:01;24.00;51.10
24744;DHT22;12844;52.110;5.548;2022-09-12T04:07:26;24.10;51.20
24744;DHT22;12844;52.110;5.548;2022-09-12T04:09:52;24.00;51.10
24744;DHT22;12844;52.110;5.548;2022-09-12T04:12:18;24.00;51.10
24744;DHT22;12844;52.110;5.548;2022-09-12T04:14:44;24.00;51.10
24744;DHT22;12844;52.110;5.548;2022-09-12T04:17:10;24.00;51.10
24744;DHT22;12844;52.110;5.548;2022-09-12T04:19:35;24.00;51.10
24744;DHT22;12844;52.110;5.548;2022-09-12T04:22:01;24.00;51.10
24744;DHT22;12844;52.110;5.548;2022-09-12T04:24:26;24.00;51.10
24744;DHT22;12844;52.110;5.548;2022-09-12T04:26:52;24.00;51.10
24744;DHT22;12844;52.110;5.548;2022-09-12T04:29:18;24.00;51.10
24744;DHT22;12844;52.110;5.548;2022-09-12T04:31:43;24.00;51.10
24744;DHT22;12844;52.110;5.548;2022-09-12T04:34:09;24.00;51.10
24744;DHT22;12844;52.110;5.548;2022-09-12T04:36:35;24.00;51.10
24744;DHT22;12844;52.110;5.548;2022-09-12T04:39:02;24.00;51.10
24744;DHT22;12844;52.110;5.548;2022-09-12T04:41:30;24.00;51.10
24744;DHT22;12844;52.110;5.548;2022-09-12T04:44:01;24.00;51.10
24744;DHT22;12844;52.110;5.548;2022-09-12T04:46:29;24.00;51.10
24744;DHT22;12844;52.110;5.548;2022-09-12T04:48:55;24.00;51.10
24744;DHT22;12844;52.110;5.548;2022-09-12T04:51:25;24.00;51.70
24744;DHT22;12844;52.110;5.548;2022-09-12T04:53:53;24.00;51.10
24744;DHT22;12844;52.110;5.548;2022-09-12T04:56:20;24.00;51.10
24744;DHT22;12844;52.110;5.548;2022-09-12T04:58:46;24.00;51.10
24744;DHT22;12844;52.110;5.548;2022-09-12T05:01:14;24.00;51.10
24744;DHT22;12844;52.110;5.548;2022-09-12T05:03:41;23.90;51.10
24744;DHT22;12844;52.110;5.548;2022-09-12T05:06:39;23.90;51.10
24744;DHT22;12844;52.110;5.548;2022-09-12T05:09:07;24.00;51.10
24744;DHT22;12844;52.110;5.548;2022-09-12T05:11:35;23.90;51.10
24744;DHT22;12844;52.110;5.548;2022-09-12T05:14:01;23.90;51.10
24744;DHT22;12844;52.110;5.548;2022-09-12T05:16:28;23.90;51.10
24744;DHT22;12844;52.110;5.548;2022-09-12T05:18:55;23.90;51.10
24744;DHT22;12844;52.110;5.548;2022-09-12T05:21:22;23.90;51.10
24744;DHT22;12844;52.110;5.548;2022-09-12T05:23:53;23.90;51.10
24744;DHT22;12844;52.110;5.548;2022-09-12T05:26:20;23.90;51.10
24744;DHT22;12844;52.110;5.548;2022-09-12T05:28:47;23.90;51.10
24744;DHT22;12844;52.110;5.548;2022-09-12T05:31:19;23.90;51.10
24744;DHT22;12844;52.110;5.548;2022-09-12T05:33:47;23.90;51.10
24744;DHT22;12844;52.110;5.548;2022-09-12T05:36:22;23.90;51.10
24744;DHT22;12844;52.110;5.548;2022-09-12T05:38:48;23.90;51.10
24744;DHT22;12844;52.110;5.548;2022-09-12T05:41:17;23.90;51.10
24744;DHT22;12844;52.110;5.548;2022-09-12T05:43:44;23.90;51.10
24744;DHT22;12844;52.110;5.548;2022-09-12T05:46:15;23.90;51.10
24744;DHT22;12844;52.110;5.548;2022-09-12T05:48:43;23.90;51.10
24744;DHT22;12844;52.110;5.548;2022-09-12T05:51:21;23.90;51.10
24744;DHT22;12844;52.110;5.548;2022-09-12T05:53:50;23.90;51.10
24744;DHT22;12844;52.110;5.548;2022-09-12T05:56:18;23.90;51.10
24744;DHT22;12844;52.110;5.548;2022-09-12T05:58:46;23.90;51.10
24744;DHT22;12844;52.110;5.548;2022-09-12T06:01:15;23.90;51.10
24744;DHT22;12844;52.110;5.548;2022-09-12T06:03:48;23.90;51.70
24744;DHT22;12844;52.110;5.548;2022-09-12T06:06:15;23.90;51.10
24744;DHT22;12844;52.110;5.548;2022-09-12T06:08:43;23.90;51.10
24744;DHT22;12844;52.110;5.548;2022-09-12T06:11:12;23.90;51.10
24744;DHT22;12844;52.110;5.548;2022-09-12T06:13:39;23.90;51.10
24744;DHT22;12844;52.110;5.548;2022-09-12T06:16:10;23.90;51.00
24744;DHT22;12844;52.110;5.548;2022-09-12T06:18:38;23.90;51.00
24744;DHT22;12844;52.110;5.548;2022-09-12T06:21:04;23.90;51.00
24744;DHT22;12844;52.110;5.548;2022-09-12T06:23:30;23.90;51.00
24744;DHT22;12844;52.110;5.548;2022-09-12T06:25:56;23.90;51.10
24744;DHT22;12844;52.110;5.548;2022-09-12T06:28:22;23.90;51.10
24744;DHT22;12844;52.110;5.548;2022-09-12T06:30:47;23.90;51.00
24744;DHT22;12844;52.110;5.548;2022-09-12T06:33:14;23.90;51.10
24744;DHT22;12844;52.110;5.548;2022-09-12T06:35:39;23.90;51.00
24744;DHT22;12844;52.110;5.548;2022-09-12T06:38:05;23.90;51.00
24744;DHT22;12844;52.110;5.548;2022-09-12T06:40:31;23.90;51.00
24744;DHT22;12844;52.110;5.548;2022-09-12T06:42:57;23.90;51.00
24744;DHT22;12844;52.110;5.548;2022-09-12T06:45:22;23.90;51.00
24744;DHT22;12844;52.110;5.548;2022-09-12T06:47:48;23.90;51.00
24744;DHT22;12844;52.110;5.548;2022-09-12T06:50:13;23.90;50.90
24744;DHT22;12844;52.110;5.548;2022-09-12T06:52:39;23.90;51.00
24744;DHT22;12844;52.110;5.548;2022-09-12T06:55:05;23.90;50.90
24744;DHT22;12844;52.110;5.548;2022-09-12T06:57:31;23.90;50.90
24744;DHT22;12844;52.110;5.548;2022-09-12T07:00:02;23.90;50.90
24744;DHT22;12844;52.110;5.548;2022-09-12T07:02:28;23.90;50.90
24744;DHT22;12844;52.110;5.548;2022-09-12T07:04:54;23.90;50.90
24744;DHT22;12844;52.110;5.548;2022-09-12T07:07:19;23.90;50.90
24744;DHT22;12844;52.110;5.548;2022-09-12T07:09:45;23.90;51.50
24744;DHT22;12844;52.110;5.548;2022-09-12T07:12:10;23.90;50.90
24744;DHT22;12844;52.110;5.548;2022-09-12T07:14:36;23.90;50.90
24744;DHT22;12844;52.110;5.548;2022-09-12T07:17:02;23.90;50.90
24744;DHT22;12844;52.110;5.548;2022-09-12T07:19:27;23.90;51.00
24744;DHT22;12844;52.110;5.548;2022-09-12T07:21:54;23.90;51.00
24744;DHT22;12844;52.110;5.548;2022-09-12T07:24:19;23.90;51.00
24744;DHT22;12844;52.110;5.548;2022-09-12T07:26:44;23.90;50.90
24744;DHT22;12844;52.110;5.548;2022-09-12T07:29:15;23.90;50.80
24744;DHT22;12844;52.110;5.548;2022-09-12T07:31:41;24.00;50.90
24744;DHT22;12844;52.110;5.548;2022-09-12T07:34:07;24.00;51.00
24744;DHT22;12844;52.110;5.548;2022-09-12T07:36:33;23.90;50.90
24744;DHT22;12844;52.110;5.548;2022-09-12T07:38:59;24.00;51.00
24744;DHT22;12844;52.110;5.548;2022-09-12T07:41:28;24.00;51.00
24744;DHT22;12844;52.110;5.548;2022-09-12T07:43:56;24.00;51.00
24744;DHT22;12844;52.110;5.548;2022-09-12T07:46:22;24.00;51.10
24744;DHT22;12844;52.110;5.548;2022-09-12T07:48:52;24.00;51.10
24744;DHT22;12844;52.110;5.548;2022-09-12T07:51:18;24.00;51.20
24744;DHT22;12844;52.110;5.548;2022-09-12T07:53:44;24.00;51.20
24744;DHT22;12844;52.110;5.548;2022-09-12T07:56:11;24.00;51.20
24744;DHT22;12844;52.110;5.548;2022-09-12T07:58:38;24.00;51.30
24744;DHT22;12844;52.110;5.548;2022-09-12T08:01:17;24.10;51.30
24744;DHT22;12844;52.110;5.548;2022-09-12T08:03:45;24.10;51.30
24744;DHT22;12844;52.110;5.548;2022-09-12T08:06:19;24.10;51.30
24744;DHT22;12844;52.110;5.548;2022-09-12T08:08:46;24.10;51.40
24744;DHT22;12844;52.110;5.548;2022-09-12T08:11:14;24.10;51.40
24744;DHT22;12844;52.110;5.548;2022-09-12T08:13:41;24.10;51.30
24744;DHT22;12844;52.110;5.548;2022-09-12T08:16:14;24.10;51.30
24744;DHT22;12844;52.110;5.548;2022-09-12T08:18:40;24.10;51.20
24744;DHT22;12844;52.110;5.548;2022-09-12T08:21:11;24.10;51.20
24744;DHT22;12844;52.110;5.548;2022-09-12T08:23:36;24.10;51.20
24744;DHT22;12844;52.110;5.548;2022-09-12T08:26:03;24.10;51.20
24744;DHT22;12844;52.110;5.548;2022-09-12T08:28:30;24.10;51.20
24744;DHT22;12844;52.110;5.548;2022-09-12T08:31:05;24.10;51.20
24744;DHT22;12844;52.110;5.548;2022-09-12T08:33:31;24.10;51.20
24744;DHT22;12844;52.110;5.548;2022-09-12T08:36:10;24.10;51.20
24744;DHT22;12844;52.110;5.548;2022-09-12T08:38:37;24.10;51.10
24744;DHT22;12844;52.110;5.548;2022-09-12T08:41:06;24.10;51.20
24744;DHT22;12844;52.110;5.548;2022-09-12T08:43:50;24.10;51.20
24744;DHT22;12844;52.110;5.548;2022-09-12T08:46:37;24.20;51.20
24744;DHT22;12844;52.110;5.548;2022-09-12T08:49:09;24.20;51.20
24744;DHT22;12844;52.110;5.548;2022-09-12T08:51:36;24.20;51.30
24744;DHT22;12844;52.110;5.548;2022-09-12T08:54:05;24.20;51.30
24744;DHT22;12844;52.110;5.548;2022-09-12T08:56:37;24.20;51.20
24744;DHT22;12844;52.110;5.548;2022-09-12T08:59:03;24.20;51.20
24744;DHT22;12844;52.110;5.548;2022-09-12T09:01:31;24.20;51.20
24744;DHT22;12844;52.110;5.548;2022-09-12T09:17:26;24.20;51.20
24744;DHT22;12844;52.110;5.548;2022-09-12T09:22:46;24.30;51.10
24744;DHT22;12844;52.110;5.548;2022-09-12T09:25:21;24.30;51.20
24744;DHT22;12844;52.110;5.548;2022-09-12T09:30:22;24.30;51.10
24744;DHT22;12844;52.110;5.548;2022-09-12T09:32:54;24.30;51.20
24744;DHT22;12844;52.110;5.548;2022-09-12T09:38:40;24.30;51.10
24744;DHT22;12844;52.110;5.548;2022-09-12T09:43:52;24.40;51.10
24744;DHT22;12844;52.110;5.548;2022-09-12T09:46:17;24.30;51.20
24744;DHT22;12844;52.110;5.548;2022-09-12T09:48:46;24.40;51.20
24744;DHT22;12844;52.110;5.548;2022-09-12T09:51:18;24.40;51.10
24744;DHT22;12844;52.110;5.548;2022-09-12T09:53:51;24.40;51.10
24744;DHT22;12844;52.110;5.548;2022-09-12T09:56:27;24.40;51.10
24744;DHT22;12844;52.110;5.548;2022-09-12T09:58:53;24.40;51.10
24744;DHT22;12844;52.110;5.548;2022-09-12T10:01:18;24.40;51.10
24744;DHT22;12844;52.110;5.548;2022-09-12T10:03:53;24.40;51.10
24744;DHT22;12844;52.110;5.548;2022-09-12T10:08:49;24.40;51.00
24744;DHT22;12844;52.110;5.548;2022-09-12T10:14:01;24.40;51.00
24744;DHT22;12844;52.110;5.548;2022-09-12T10:16:30;24.50;51.10
24744;DHT22;12844;52.110;5.548;2022-09-12T10:18:58;24.50;51.10
24744;DHT22;12844;52.110;5.548;2022-09-12T10:21:34;24.50;51.10
24744;DHT22;12844;52.110;5.548;2022-09-12T10:24:20;24.50;51.10
24744;DHT22;12844;52.110;5.548;2022-09-12T10:27:35;24.50;51.00
24744;DHT22;12844;52.110;5.548;2022-09-12T10:32:36;24.50;51.10
24744;DHT22;12844;52.110;5.548;2022-09-12T10:35:15;24.50;51.10
24744;DHT22;12844;52.110;5.548;2022-09-12T10:37:56;24.50;51.10
24744;DHT22;12844;52.110;5.548;2022-09-12T10:40:25;24.50;51.10
24744;DHT22;12844;52.110;5.548;2022-09-12T10:42:56;24.50;51.10
24744;DHT22;12844;52.110;5.548;2022-09-12T10:47:57;24.50;51.10
24744;DHT22;12844;52.110;5.548;2022-09-12T10:50:34;24.60;51.10
24744;DHT22;12844;52.110;5.548;2022-09-12T10:53:14;24.60;51.10
24744;DHT22;12844;52.110;5.548;2022-09-12T10:55:44;24.60;51.00
24744;DHT22;12844;52.110;5.548;2022-09-12T10:58:29;24.60;51.10
24744;DHT22;12844;52.110;5.548;2022-09-12T11:09:41;24.60;51.10
24744;DHT22;12844;52.110;5.548;2022-09-12T11:14:52;24.70;51.10
24744;DHT22;12844;52.110;5.548;2022-09-12T11:17:50;24.70;51.10
24744;DHT22;12844;52.110;5.548;2022-09-12T11:32:22;24.70;51.00
24744;DHT22;12844;52.110;5.548;2022-09-12T11:35:01;24.80;51.10
24744;DHT22;12844;52.110;5.548;2022-09-12T11:37:35;24.70;51.20
24744;DHT22;12844;52.110;5.548;2022-09-12T11:40:17;24.70;51.10
24744;DHT22;12844;52.110;5.548;2022-09-12T11:42:48;24.80;51.10
24744;DHT22;12844;52.110;5.548;2022-09-12T11:45:21;24.70;51.10
24744;DHT22;12844;52.110;5.548;2022-09-12T11:47:51;24.80;51.10
24744;DHT22;12844;52.110;5.548;2022-09-12T11:50:37;24.80;51.10
24744;DHT22;12844;52.110;5.548;2022-09-12T11:53:14;24.80;50.90
24744;DHT22;12844;52.110;5.548;2022-09-12T11:55:54;24.80;51.10
24744;DHT22;12844;52.110;5.548;2022-09-12T11:58:24;24.80;51.00
24744;DHT22;12844;52.110;5.548;2022-09-12T12:00:54;24.80;51.10
24744;DHT22;12844;52.110;5.548;2022-09-12T12:03:34;24.80;51.00
24744;DHT22;12844;52.110;5.548;2022-09-12T12:08:31;24.80;51.00
24744;DHT22;12844;52.110;5.548;2022-09-12T12:11:03;24.80;51.60
24744;DHT22;12844;52.110;5.548;2022-09-12T12:16:04;24.80;51.00
24744;DHT22;12844;52.110;5.548;2022-09-12T12:18:32;24.90;51.00
24744;DHT22;12844;52.110;5.548;2022-09-12T12:21:45;24.90;51.10
24744;DHT22;12844;52.110;5.548;2022-09-12T12:24:13;24.90;50.90
24744;DHT22;12844;52.110;5.548;2022-09-12T12:29:34;24.80;51.10
24744;DHT22;12844;52.110;5.548;2022-09-12T12:34:34;24.80;51.10
24744;DHT22;12844;52.110;5.548;2022-09-12T12:45:43;24.80;51.10
24744;DHT22;12844;52.110;5.548;2022-09-12T12:48:09;24.80;51.20
24744;DHT22;12844;52.110;5.548;2022-09-12T12:50:35;24.80;51.20
24744;DHT22;12844;52.110;5.548;2022-09-12T12:53:02;24.80;51.20
24744;DHT22;12844;52.110;5.548;2022-09-12T13:03:31;24.80;51.20
24744;DHT22;12844;52.110;5.548;2022-09-12T13:06:01;24.80;51.20
24744;DHT22;12844;52.110;5.548;2022-09-12T13:08:32;24.80;51.20
24744;DHT22;12844;52.110;5.548;2022-09-12T13:11:15;24.80;51.20
24744;DHT22;12844;52.110;5.548;2022-09-12T13:14:05;24.80;51.20
24744;DHT22;12844;52.110;5.548;2022-09-12T13:16:37;24.80;51.20
24744;DHT22;12844;52.110;5.548;2022-09-12T13:19:07;24.80;51.30
24744;DHT22;12844;52.110;5.548;2022-09-12T13:21:36;24.80;51.30
24744;DHT22;12844;52.110;5.548;2022-09-12T13:24:11;24.80;51.20
24744;DHT22;12844;52.110;5.548;2022-09-12T13:26:43;24.80;51.20
24744;DHT22;12844;52.110;5.548;2022-09-12T13:29:15;24.80;51.20
24744;DHT22;12844;52.110;5.548;2022-09-12T13:31:42;24.80;51.20
24744;DHT22;12844;52.110;5.548;2022-09-12T13:34:09;24.70;51.20
24744;DHT22;12844;52.110;5.548;2022-09-12T13:39:22;24.80;51.20
24744;DHT22;12844;52.110;5.548;2022-09-12T13:44:26;24.80;51.20
24744;DHT22;12844;52.110;5.548;2022-09-12T13:46:53;24.80;51.20
24744;DHT22;12844;52.110;5.548;2022-09-12T13:49:37;24.80;51.20
24744;DHT22;12844;52.110;5.548;2022-09-12T13:52:07;24.80;51.20
24744;DHT22;12844;52.110;5.548;2022-09-12T13:54:34;24.80;51.20
24744;DHT22;12844;52.110;5.548;2022-09-12T13:57:04;24.80;51.30
24744;DHT22;12844;52.110;5.548;2022-09-12T13:59:40;24.80;51.30
24744;DHT22;12844;52.110;5.548;2022-09-12T14:02:21;24.80;51.20
24744;DHT22;12844;52.110;5.548;2022-09-12T14:04:47;24.80;51.20
24744;DHT22;12844;52.110;5.548;2022-09-12T14:07:37;24.70;51.30
24744;DHT22;12844;52.110;5.548;2022-09-12T14:10:04;24.70;51.30
24744;DHT22;12844;52.110;5.548;2022-09-12T14:12:34;24.70;51.30
24744;DHT22;12844;52.110;5.548;2022-09-12T14:15:01;24.80;51.40
24744;DHT22;12844;52.110;5.548;2022-09-12T14:17:32;24.70;51.30
24744;DHT22;12844;52.110;5.548;2022-09-12T14:20:01;24.80;51.40
24744;DHT22;12844;52.110;5.548;2022-09-12T14:22:28;24.70;51.40
24744;DHT22;12844;52.110;5.548;2022-09-12T21:05:28;24.60;52.10
24744;DHT22;12844;52.110;5.548;2022-09-12T21:07:54;24.60;52.10
24744;DHT22;12844;52.110;5.548;2022-09-12T21:10:19;24.60;52.00
24744;DHT22;12844;52.110;5.548;2022-09-12T21:12:45;24.60;52.00
24744;DHT22;12844;52.110;5.548;2022-09-12T21:15:10;24.60;52.00
24744;DHT22;12844;52.110;5.548;2022-09-12T21:17:36;24.60;52.00
24744;DHT22;12844;52.110;5.548;2022-09-12T21:20:01;24.60;52.00
24744;DHT22;12844;52.110;5.548;2022-09-12T21:22:27;24.60;52.00
24744;DHT22;12844;52.110;5.548;2022-09-12T21:24:52;24.60;52.00
24744;DHT22;12844;52.110;5.548;2022-09-12T21:27:18;24.60;52.00
24744;DHT22;12844;52.110;5.548;2022-09-12T21:29:43;24.60;52.00
24744;DHT22;12844;52.110;5.548;2022-09-12T21:32:09;24.70;52.00
24744;DHT22;12844;52.110;5.548;2022-09-12T21:34:34;24.70;52.00
24744;DHT22;12844;52.110;5.548;2022-09-12T21:37:00;24.70;52.00
24744;DHT22;12844;52.110;5.548;2022-09-12T21:39:25;24.70;52.00
24744;DHT22;12844;52.110;5.548;2022-09-12T21:41:51;24.60;52.00
24744;DHT22;12844;52.110;5.548;2022-09-12T21:44:16;24.70;52.20
24744;DHT22;12844;52.110;5.548;2022-09-12T21:46:42;24.70;52.30
24744;DHT22;12844;52.110;5.548;2022-09-12T21:49:07;24.70;52.30
24744;DHT22;12844;52.110;5.548;2022-09-12T21:51:33;24.70;52.40
24744;DHT22;12844;52.110;5.548;2022-09-12T21:53:58;24.70;52.40
24744;DHT22;12844;52.110;5.548;2022-09-12T21:56:23;24.70;52.30
24744;DHT22;12844;52.110;5.548;2022-09-12T21:58:49;24.70;52.40
24744;DHT22;12844;52.110;5.548;2022-09-12T22:01:14;24.70;53.20
24744;DHT22;12844;52.110;5.548;2022-09-12T22:03:40;24.70;52.50
24744;DHT22;12844;52.110;5.548;2022-09-12T22:06:07;24.70;52.50
24744;DHT22;12844;52.110;5.548;2022-09-12T22:08:33;24.70;52.50
24744;DHT22;12844;52.110;5.548;2022-09-12T22:11:01;24.70;52.50
24744;DHT22;12844;52.110;5.548;2022-09-12T22:13:28;24.70;52.60
24744;DHT22;12844;52.110;5.548;2022-09-12T22:15:56;24.80;52.60
24744;DHT22;12844;52.110;5.548;2022-09-12T22:18:21;24.80;52.70
24744;DHT22;12844;52.110;5.548;2022-09-12T22:20:47;24.70;52.60
24744;DHT22;12844;52.110;5.548;2022-09-12T22:23:13;24.70;52.60
24744;DHT22;12844;52.110;5.548;2022-09-12T22:25:58;24.80;52.70
24744;DHT22;12844;52.110;5.548;2022-09-12T22:28:24;24.70;52.70
24744;DHT22;12844;52.110;5.548;2022-09-12T22:30:50;24.70;52.60
24744;DHT22;12844;52.110;5.548;2022-09-12T22:33:16;24.70;52.60
24744;DHT22;12844;52.110;5.548;2022-09-12T22:35:42;24.80;52.70
24744;DHT22;12844;52.110;5.548;2022-09-12T22:38:08;24.80;52.70
24744;DHT22;12844;52.110;5.548;2022-09-12T22:40:34;24.70;52.70
24744;DHT22;12844;52.110;5.548;2022-09-12T22:42:59;24.70;52.60
24744;DHT22;12844;52.110;5.548;2022-09-12T22:45:25;24.70;52.70
24744;DHT22;12844;52.110;5.548;2022-09-12T22:47:51;24.80;52.70
24744;DHT22;12844;52.110;5.548;2022-09-12T22:50:17;24.80;52.70
24744;DHT22;12844;52.110;5.548;2022-09-12T22:52:42;24.80;52.70
24744;DHT22;12844;52.110;5.548;2022-09-12T22:55:08;24.80;52.70
24744;DHT22;12844;52.110;5.548;2022-09-12T22:57:34;24.80;52.70
24744;DHT22;12844;52.110;5.548;2022-09-12T23:00:00;24.80;52.70
24744;DHT22;12844;52.110;5.548;2022-09-12T23:02:26;24.80;52.70
24744;DHT22;12844;52.110;5.548;2022-09-12T23:04:51;24.80;52.80
24744;DHT22;12844;52.110;5.548;2022-09-12T23:07:17;24.80;52.80
24744;DHT22;12844;52.110;5.548;2022-09-12T23:09:43;24.80;52.70
24744;DHT22;12844;52.110;5.548;2022-09-12T23:12:10;24.80;52.70
24744;DHT22;12844;52.110;5.548;2022-09-12T23:14:36;24.70;52.70
24744;DHT22;12844;52.110;5.548;2022-09-12T23:17:02;24.80;52.70
24744;DHT22;12844;52.110;5.548;2022-09-12T23:19:27;24.80;52.80
24744;DHT22;12844;52.110;5.548;2022-09-12T23:21:53;24.80;53.40
24744;DHT22;12844;52.110;5.548;2022-09-12T23:24:18;24.80;52.70
24744;DHT22;12844;52.110;5.548;2022-09-12T23:26:44;24.80;52.70
24744;DHT22;12844;52.110;5.548;2022-09-12T23:29:09;24.80;52.70
24744;DHT22;12844;52.110;5.548;2022-09-12T23:31:35;24.80;52.70
24744;DHT22;12844;52.110;5.548;2022-09-12T23:34:04;24.70;52.70
24744;DHT22;12844;52.110;5.548;2022-09-12T23:36:30;24.80;52.80
24744;DHT22;12844;52.110;5.548;2022-09-12T23:38:56;24.80;52.70
24744;DHT22;12844;52.110;5.548;2022-09-12T23:41:23;24.80;52.70
24744;DHT22;12844;52.110;5.548;2022-09-12T23:43:49;24.70;52.70
24744;DHT22;12844;52.110;5.548;2022-09-12T23:46:15;24.80;52.70
24744;DHT22;12844;52.110;5.548;2022-09-12T23:48:42;24.80;52.70
24744;DHT22;12844;52.110;5.548;2022-09-12T23:51:08;24.80;52.80
24744;DHT22;12844;52.110;5.548;2022-09-12T23:53:34;24.80;52.70
24744;DHT22;12844;52.110;5.548;2022-09-12T23:56:00;24.70;52.70
24744;DHT22;12844;52.110;5.548;2022-09-12T23:58:26;24.80;52.70
